Portada
METAR-TAF:

METAR-TAF

Aeroports :

Floyd Bennett Memorial Airport

Glens Falls, Nova York, Estats Units d'Amèrica

latitud: 43-20-28N, longitud: 073-36-38W, altitud: 100 m

Observació

L'informe es va fer fa 9 minuts, a les 19:53 UTC
Vent 4 kt del Est
Temperatura -4°C
Humitat 39%
Pressió 1027 hPa
Visibilitat: 16.1 km
Cel clar

METAR: KGFL 131953Z AUTO 09004KT 10SM CLR M04/M16 A3033 RMK AO2 SLP286 T10441156

Hora: 15:02 (20:02 UTC)

Pronòstic

L'informe es va fer fa 2 hores i 39 minuts, a les 17:23 UTC
Pronòstic vàlid del 13 a les 18 UTC al 14 a les 18 UTC
Vent 7 kt del Nord-Oest
Visibilitat: 10 km
Cel clar
A partir de les 13 a les 2200 UTC
Vent kt del Nord
Visibilitat: 10 km
Núvols disperses a una alçada de 15000 ft
A partir de les 14 a les 1600 UTC
Vent 9 kt del Sud amb ràfegues de 18 kt
Visibilitat: 10 km
Cel ennuvolat a una alçada de 9000 ft

TAF: KGFL 131723Z 1318/1418 31007KT P6SM SKC FM132200 00000KT P6SM SCT150 FM141600 18009G18KT P6SM BKN090

Observacions i pronòstics meteorològics de més de 4000 aeroports (METAR i TAF).

Les estacions disponibles són els punts grocs i vermells al mapa.

Posi el ratolí al punt desitjat per veure el nom de l'estació.

Feu clic per veure les observacions i els pronòstics meteorològics.

Per canviar el mapa: feu clic els botons verds amb una creu de color negre per apropar; al botó verd amb un guió per allunyar la imatge; o en les fletxes verdes per a mapes adjacents.


METAR-TAF: